createdAt,value
2018-06-14T00:01:21.781Z,2.80
2018-06-14T00:03:49.661Z,2.37
2018-06-14T00:06:17.327Z,1.93
2018-06-14T00:08:44.973Z,2.03
2018-06-14T00:11:12.627Z,1.87
2018-06-14T00:13:40.270Z,2.47
2018-06-14T00:16:08.267Z,1.97
2018-06-14T00:18:36.049Z,2.40
2018-06-14T00:21:03.782Z,2.23
2018-06-14T00:23:31.454Z,2.07
2018-06-14T00:25:59.249Z,2.27
2018-06-14T00:28:26.845Z,2.30
2018-06-14T00:30:54.539Z,2.27
2018-06-14T00:33:22.200Z,2.60
2018-06-14T00:35:49.966Z,2.30
2018-06-14T00:38:17.792Z,1.77
2018-06-14T00:40:45.515Z,2.57
2018-06-14T00:43:13.234Z,2.07
2018-06-14T00:45:40.901Z,2.73
2018-06-14T00:48:08.520Z,2.60
2018-06-14T00:50:36.437Z,2.30
2018-06-14T00:53:04.186Z,2.17
2018-06-14T00:55:31.810Z,2.60
2018-06-14T00:57:59.430Z,2.70
2018-06-14T01:00:27.216Z,2.00
2018-06-14T01:02:54.900Z,2.47
2018-06-14T01:05:22.698Z,2.30
2018-06-14T01:07:50.362Z,2.73
2018-06-14T01:10:18.165Z,2.83
2018-06-14T01:12:45.884Z,2.13
2018-06-14T01:15:13.692Z,2.13
2018-06-14T01:17:41.392Z,2.77
2018-06-14T01:20:09.148Z,2.60
2018-06-14T01:22:36.819Z,2.17
2018-06-14T01:25:05.080Z,2.23
2018-06-14T01:27:32.817Z,2.60
2018-06-14T01:30:00.468Z,2.60
2018-06-14T01:32:28.118Z,2.63
2018-06-14T01:34:55.804Z,2.00
2018-06-14T01:37:34.928Z,2.40
2018-06-14T01:40:02.669Z,2.40
2018-06-14T01:42:30.360Z,2.23
2018-06-14T01:44:57.935Z,2.77
2018-06-14T01:47:25.607Z,2.50
2018-06-14T01:49:53.739Z,2.23
2018-06-14T01:52:21.471Z,2.20
2018-06-14T01:54:49.220Z,2.47
2018-06-14T01:57:16.794Z,2.20
2018-06-14T01:59:44.541Z,2.13
2018-06-14T02:02:12.298Z,2.40
2018-06-14T02:04:40.007Z,2.03
2018-06-14T02:07:07.721Z,2.40
2018-06-14T02:09:35.524Z,2.30
2018-06-14T02:12:03.212Z,1.80
2018-06-14T02:14:30.808Z,2.37
2018-06-14T02:16:58.659Z,2.30
2018-06-14T02:19:26.298Z,2.60
2018-06-14T02:21:53.947Z,2.30
2018-06-14T02:24:21.725Z,2.10
2018-06-14T02:26:49.400Z,2.00
2018-06-14T02:29:17.940Z,2.13
2018-06-14T02:31:45.625Z,2.30
2018-06-14T02:34:13.128Z,2.00
2018-06-14T02:36:40.793Z,2.43
2018-06-14T02:39:08.475Z,2.17
2018-06-14T02:41:37.541Z,2.47
2018-06-14T02:44:05.286Z,2.63
2018-06-14T02:46:33.038Z,2.20
2018-06-14T02:49:00.757Z,2.00
2018-06-14T02:51:28.412Z,2.40
2018-06-14T02:53:56.443Z,1.90
2018-06-14T02:56:24.062Z,2.20
2018-06-14T02:58:51.667Z,2.23
2018-06-14T03:01:19.377Z,2.07
2018-06-14T03:03:47.016Z,2.07
2018-06-14T03:06:14.703Z,2.27
2018-06-14T03:08:42.447Z,2.40
2018-06-14T03:11:10.261Z,2.17
2018-06-14T03:13:37.816Z,1.90
2018-06-14T03:16:05.613Z,2.00
2018-06-14T03:18:33.278Z,2.00
2018-06-14T03:21:03.003Z,1.90
2018-06-14T03:23:31.268Z,2.00
2018-06-14T03:25:59.148Z,2.40
2018-06-14T03:28:26.914Z,2.20
2018-06-14T03:30:54.825Z,1.87
2018-06-14T03:33:22.571Z,2.10
2018-06-14T03:35:50.208Z,2.20
2018-06-14T03:38:18.108Z,1.60
2018-06-14T03:40:45.794Z,2.37
2018-06-14T03:43:13.490Z,2.10
2018-06-14T03:45:41.433Z,2.03
2018-06-14T03:48:09.075Z,2.07
2018-06-14T03:50:36.718Z,1.80
2018-06-14T03:53:04.415Z,1.80
2018-06-14T03:55:32.124Z,1.90
2018-06-14T03:57:59.710Z,2.27
2018-06-14T04:00:27.448Z,2.33
2018-06-14T04:02:55.559Z,2.10
2018-06-14T04:05:23.483Z,2.13
2018-06-14T04:07:51.056Z,1.43
2018-06-14T04:10:18.703Z,1.97
2018-06-14T04:12:46.420Z,2.33
2018-06-14T04:15:14.059Z,1.90
2018-06-14T04:17:41.753Z,2.43
2018-06-14T04:20:09.400Z,2.37
2018-06-14T04:22:36.972Z,2.23
2018-06-14T04:25:04.650Z,1.83
2018-06-14T04:27:32.560Z,1.50
2018-06-14T04:30:00.206Z,2.63
2018-06-14T04:32:27.759Z,1.80
2018-06-14T04:34:55.368Z,1.80
2018-06-14T04:37:23.029Z,1.83
2018-06-14T04:39:50.677Z,1.90
2018-06-14T04:42:18.425Z,1.80
2018-06-14T04:44:46.295Z,1.77
2018-06-14T04:47:13.937Z,1.97
2018-06-14T04:49:41.846Z,2.30
2018-06-14T04:52:09.506Z,2.53
2018-06-14T04:54:37.295Z,1.90
2018-06-14T04:57:05.029Z,2.20
2018-06-14T04:59:32.722Z,1.97
2018-06-14T05:02:00.432Z,1.80
2018-06-14T05:04:28.212Z,1.87
2018-06-14T05:06:56.027Z,1.73
2018-06-14T05:09:23.724Z,2.20
2018-06-14T05:11:51.397Z,2.07
2018-06-14T05:14:19.086Z,2.20
2018-06-14T05:16:46.858Z,2.20
2018-06-14T05:19:14.578Z,2.40
2018-06-14T05:21:42.379Z,2.50
2018-06-14T05:24:10.129Z,2.77
2018-06-14T05:26:37.854Z,2.80
2018-06-14T05:29:05.584Z,2.90
2018-06-14T05:31:33.465Z,2.60
2018-06-14T05:34:01.099Z,2.57
2018-06-14T05:36:28.934Z,3.50
2018-06-14T05:38:56.759Z,2.40
2018-06-14T05:41:24.356Z,3.10
2018-06-14T05:43:52.268Z,2.77
2018-06-14T05:46:19.980Z,2.60
2018-06-14T05:48:47.802Z,3.00
2018-06-14T05:51:15.401Z,3.97
2018-06-14T05:53:43.043Z,3.13
2018-06-14T05:56:10.761Z,3.20
2018-06-14T05:58:38.495Z,2.90
2018-06-14T06:01:06.451Z,2.87
2018-06-14T06:03:34.245Z,2.60
2018-06-14T06:06:01.952Z,2.70
2018-06-14T06:08:29.752Z,2.43
2018-06-14T06:10:57.479Z,2.43
2018-06-14T06:13:25.189Z,2.60
2018-06-14T06:15:52.931Z,2.30
2018-06-14T06:18:20.595Z,2.47
2018-06-14T06:20:48.284Z,2.40
2018-06-14T06:23:16.074Z,2.70
2018-06-14T06:25:43.785Z,2.03
2018-06-14T06:28:11.486Z,2.20
2018-06-14T06:30:39.673Z,2.50
2018-06-14T06:33:07.297Z,1.80
2018-06-14T06:35:35.022Z,2.03
2018-06-14T06:38:02.645Z,2.50
2018-06-14T06:40:30.453Z,1.50
2018-06-14T06:42:58.351Z,1.87
2018-06-14T06:45:26.168Z,2.00
2018-06-14T06:47:54.117Z,1.90
2018-06-14T06:50:21.709Z,2.23
2018-06-14T06:52:49.374Z,2.00
2018-06-14T06:55:17.133Z,2.23
2018-06-14T06:57:44.796Z,2.40
2018-06-14T07:00:12.411Z,2.40
2018-06-14T07:02:40.252Z,2.80
2018-06-14T07:05:07.957Z,2.67
2018-06-14T07:07:35.542Z,2.40
2018-06-14T07:10:03.568Z,2.40
2018-06-14T07:12:31.335Z,2.30
2018-06-14T07:14:59.027Z,2.23
2018-06-14T07:17:26.880Z,2.53
2018-06-14T07:19:54.598Z,2.70
2018-06-14T07:22:22.351Z,2.50
2018-06-14T07:24:50.102Z,2.30
2018-06-14T07:27:17.891Z,2.30
2018-06-14T07:29:45.649Z,2.40
2018-06-14T07:32:13.277Z,2.63
2018-06-14T07:34:41.020Z,2.90
2018-06-14T07:37:08.808Z,2.60
2018-06-14T07:39:36.487Z,2.77
2018-06-14T07:42:04.107Z,2.50
2018-06-14T07:44:31.767Z,2.67
2018-06-14T07:46:59.534Z,2.30
2018-06-14T07:49:27.213Z,2.50
2018-06-14T07:51:55.085Z,2.50
2018-06-14T07:54:22.733Z,2.93
2018-06-14T07:56:50.512Z,2.83
2018-06-14T07:59:18.274Z,2.80
2018-06-14T08:01:46.130Z,2.33
2018-06-14T08:04:13.868Z,2.30
2018-06-14T08:06:41.550Z,2.57
2018-06-14T08:09:09.992Z,2.37
2018-06-14T08:11:38.217Z,2.20
2018-06-14T08:14:05.953Z,2.37
2018-06-14T08:16:34.161Z,2.40
2018-06-14T08:19:02.133Z,7.37
2018-06-14T08:21:29.902Z,3.43
2018-06-14T08:23:57.884Z,3.40
2018-06-14T08:26:25.746Z,2.30
2018-06-14T08:28:53.562Z,2.30
2018-06-14T08:31:21.227Z,2.00
2018-06-14T08:33:49.107Z,1.87
2018-06-14T08:36:16.834Z,2.03
2018-06-14T08:38:44.605Z,1.90
2018-06-14T08:41:12.352Z,3.10
2018-06-14T08:43:39.971Z,1.50
2018-06-14T08:46:07.769Z,2.10
2018-06-14T08:48:35.492Z,1.80
2018-06-14T08:51:03.451Z,1.77
2018-06-14T08:53:31.978Z,1.90
2018-06-14T08:56:00.065Z,1.60
2018-06-14T08:58:27.793Z,1.80
2018-06-14T09:00:55.727Z,1.73
2018-06-14T09:03:23.518Z,1.90
2018-06-14T09:05:51.253Z,2.40
2018-06-14T09:08:19.048Z,1.80
2018-06-14T09:10:46.756Z,1.77
2018-06-14T09:13:14.404Z,2.33
2018-06-14T09:15:42.161Z,2.33
2018-06-14T09:18:09.830Z,1.80
2018-06-14T09:20:37.463Z,1.80
2018-06-14T09:23:05.361Z,1.73
2018-06-14T09:25:33.154Z,1.70
2018-06-14T09:28:01.026Z,1.57
2018-06-14T09:30:28.917Z,2.00
2018-06-14T09:32:56.709Z,1.87
2018-06-14T09:35:24.820Z,1.93
2018-06-14T09:37:52.578Z,2.10
2018-06-14T09:40:20.351Z,1.83
2018-06-14T09:42:48.134Z,1.70
2018-06-14T09:45:15.780Z,1.97
2018-06-14T09:47:43.560Z,2.03
2018-06-14T09:50:11.276Z,1.60
2018-06-14T09:52:38.989Z,1.73
2018-06-14T09:55:06.632Z,2.20
2018-06-14T09:57:34.358Z,1.90
2018-06-14T10:00:02.141Z,1.93
2018-06-14T10:02:29.874Z,1.60
2018-06-14T10:04:57.511Z,1.87
2018-06-14T10:07:25.220Z,1.57
2018-06-14T10:09:53.215Z,1.90
2018-06-14T10:12:21.025Z,1.57
2018-06-14T10:14:48.929Z,1.70
2018-06-14T10:17:16.654Z,1.90
2018-06-14T10:19:46.675Z,1.70
2018-06-14T10:22:14.317Z,1.50
2018-06-14T10:24:42.098Z,1.50
2018-06-14T10:27:09.741Z,1.47
2018-06-14T10:29:37.396Z,1.27
2018-06-14T10:32:05.135Z,1.53
2018-06-14T10:34:32.822Z,1.60
2018-06-14T10:37:00.803Z,1.70
2018-06-14T10:39:28.751Z,1.50
2018-06-14T10:41:57.484Z,1.87
2018-06-14T10:44:25.146Z,1.70
2018-06-14T10:46:53.138Z,1.50
2018-06-14T10:49:20.759Z,1.20
2018-06-14T10:51:48.302Z,1.17
2018-06-14T10:54:15.869Z,1.83
2018-06-14T10:56:43.704Z,1.50
2018-06-14T10:59:11.396Z,1.60
2018-06-14T11:01:39.032Z,1.50
2018-06-14T11:04:07.540Z,1.30
2018-06-14T11:06:36.952Z,1.40
2018-06-14T11:09:06.398Z,1.37
2018-06-14T11:11:35.862Z,1.40
2018-06-14T11:14:03.510Z,1.70
2018-06-14T11:16:31.310Z,1.60
2018-06-14T11:18:59.054Z,2.20
2018-06-14T11:21:27.042Z,1.30
2018-06-14T11:23:55.043Z,1.43
2018-06-14T11:26:22.816Z,1.43
2018-06-14T11:28:50.638Z,1.30
2018-06-14T11:31:18.415Z,1.20
2018-06-14T11:33:46.918Z,1.33
2018-06-14T11:36:14.545Z,1.10
2018-06-14T11:38:42.960Z,1.40
2018-06-14T11:41:10.655Z,1.27
2018-06-14T11:43:38.230Z,1.70
2018-06-14T11:46:06.181Z,1.80
2018-06-14T11:48:33.734Z,1.50
2018-06-14T11:51:01.667Z,1.60
2018-06-14T11:53:29.765Z,1.60
2018-06-14T11:55:57.313Z,1.50
2018-06-14T11:58:25.049Z,1.40
2018-06-14T12:00:52.722Z,1.20
2018-06-14T12:03:20.437Z,1.70
2018-06-14T12:05:48.121Z,3.60
2018-06-14T12:08:15.910Z,1.63
2018-06-14T12:10:43.485Z,2.53
2018-06-14T12:13:11.083Z,1.30
2018-06-14T12:15:39.025Z,1.83
2018-06-14T12:18:06.654Z,1.30
2018-06-14T12:20:34.620Z,1.53
2018-06-14T12:23:02.290Z,1.40
2018-06-14T12:25:30.011Z,1.50
2018-06-14T12:27:57.809Z,1.23
2018-06-14T12:30:25.629Z,1.27
2018-06-14T12:32:53.211Z,1.60
2018-06-14T12:35:20.864Z,1.17
2018-06-14T12:37:48.693Z,1.47
2018-06-14T12:40:16.498Z,1.43
2018-06-14T12:42:44.283Z,1.90
2018-06-14T12:45:11.933Z,1.27
2018-06-14T12:47:39.560Z,1.40
2018-06-14T12:50:07.228Z,1.53
2018-06-14T12:52:34.797Z,1.60
2018-06-14T12:55:02.686Z,1.40
2018-06-14T12:57:30.741Z,1.27
2018-06-14T12:59:58.604Z,1.30
2018-06-14T13:02:26.310Z,1.60
2018-06-14T13:04:53.974Z,1.60
2018-06-14T13:07:21.757Z,1.10
2018-06-14T13:09:49.503Z,1.80
2018-06-14T13:12:17.130Z,1.40
2018-06-14T13:14:45.000Z,1.37
2018-06-14T13:17:12.705Z,1.40
2018-06-14T13:19:40.276Z,1.67
2018-06-14T13:22:08.030Z,1.53
2018-06-14T13:24:40.083Z,1.30
2018-06-14T13:27:07.732Z,1.40
2018-06-14T13:29:35.442Z,1.20
2018-06-14T13:32:03.176Z,1.40
2018-06-14T13:34:31.077Z,1.13
2018-06-14T13:36:58.921Z,1.63
2018-06-14T13:39:26.530Z,1.50
2018-06-14T13:41:54.273Z,1.23
2018-06-14T13:44:21.877Z,1.30
2018-06-14T13:46:49.562Z,1.60
2018-06-14T13:49:17.086Z,1.90
2018-06-14T13:51:44.809Z,1.97
2018-06-14T13:54:12.409Z,1.30
2018-06-14T13:56:40.094Z,1.40
2018-06-14T13:59:07.765Z,1.30
2018-06-14T14:01:36.233Z,1.90
2018-06-14T14:04:03.952Z,1.43
2018-06-14T14:06:31.654Z,1.67
2018-06-14T14:08:59.394Z,1.50
2018-06-14T14:11:27.215Z,1.60
2018-06-14T14:13:55.136Z,9.10
2018-06-14T14:16:22.813Z,1.63
2018-06-14T14:18:50.483Z,1.77
2018-06-14T14:21:18.205Z,1.60
2018-06-14T14:23:45.892Z,1.60
2018-06-14T14:26:13.603Z,1.80
2018-06-14T14:28:41.422Z,3.37
2018-06-14T14:31:09.235Z,2.60
2018-06-14T14:33:37.153Z,1.70
2018-06-14T14:36:04.992Z,1.37
2018-06-14T14:38:32.732Z,1.90
2018-06-14T14:41:00.587Z,1.77
2018-06-14T14:43:28.412Z,1.40
2018-06-14T14:45:56.233Z,1.43
2018-06-14T14:48:23.953Z,1.33
2018-06-14T14:50:52.166Z,1.40
2018-06-14T14:53:20.130Z,1.43
2018-06-14T14:55:47.872Z,1.60
2018-06-14T14:58:15.576Z,1.17
2018-06-14T15:00:43.563Z,1.30
2018-06-14T15:03:11.319Z,1.20
2018-06-14T15:05:38.991Z,1.13
2018-06-14T15:08:06.695Z,1.50
2018-06-14T15:10:34.277Z,1.30
2018-06-14T15:13:01.975Z,1.27
2018-06-14T15:15:29.940Z,1.10
2018-06-14T15:17:57.552Z,1.30
2018-06-14T15:20:25.349Z,1.20
2018-06-14T15:22:53.072Z,1.40
2018-06-14T15:25:20.717Z,1.43
2018-06-14T15:27:48.551Z,1.30
2018-06-14T15:30:16.208Z,1.20
2018-06-14T15:32:43.912Z,1.83
2018-06-14T15:35:11.949Z,1.30
2018-06-14T15:37:39.550Z,1.20
2018-06-14T15:40:07.147Z,1.50
2018-06-14T15:42:35.069Z,1.60
2018-06-14T15:45:02.784Z,2.60
2018-06-14T15:47:30.568Z,1.30
2018-06-14T15:49:58.395Z,1.40
2018-06-14T15:52:27.699Z,1.40
2018-06-14T15:55:07.559Z,1.50
2018-06-14T15:57:35.208Z,1.30
2018-06-14T16:00:02.976Z,1.70
2018-06-14T16:02:30.689Z,1.60
2018-06-14T16:04:59.090Z,1.60
2018-06-14T16:07:26.819Z,1.60
2018-06-14T16:09:54.544Z,1.30
2018-06-14T16:12:22.302Z,1.30
2018-06-14T16:14:50.133Z,1.43
2018-06-14T16:17:18.019Z,1.50
2018-06-14T16:19:45.693Z,1.77
2018-06-14T16:22:13.369Z,1.50
2018-06-14T16:24:41.085Z,1.40
2018-06-14T16:27:08.844Z,1.40
2018-06-14T16:29:36.467Z,2.97
2018-06-14T16:32:04.169Z,1.60
2018-06-14T16:34:31.866Z,1.57
2018-06-14T16:36:59.739Z,1.70
2018-06-14T16:39:27.379Z,1.60
2018-06-14T16:41:55.226Z,1.60
2018-06-14T16:44:22.896Z,1.67
2018-06-14T16:46:50.643Z,1.50
2018-06-14T16:49:18.384Z,1.60
2018-06-14T16:51:46.162Z,1.73
2018-06-14T16:54:13.874Z,1.70
2018-06-14T16:56:41.847Z,1.60
2018-06-14T16:59:09.617Z,1.77
2018-06-14T17:01:38.356Z,1.77
2018-06-14T17:04:05.978Z,1.90
2018-06-14T17:06:33.921Z,1.57
2018-06-14T17:09:01.738Z,2.00
2018-06-14T17:11:30.248Z,1.70
2018-06-14T17:13:58.243Z,4.83
2018-06-14T17:16:25.927Z,5.23
2018-06-14T17:18:53.639Z,2.70
2018-06-14T17:21:21.383Z,3.17
2018-06-14T17:23:49.061Z,3.00
2018-06-14T17:26:16.906Z,1.63
2018-06-14T17:28:44.659Z,1.67
2018-06-14T17:31:12.390Z,1.97
2018-06-14T17:33:41.114Z,1.53
2018-06-14T17:36:08.957Z,2.37
2018-06-14T17:38:36.818Z,2.00
2018-06-14T17:41:04.609Z,1.60
2018-06-14T17:43:32.959Z,2.00
2018-06-14T17:46:00.931Z,2.00
2018-06-14T17:48:29.233Z,1.80
2018-06-14T17:50:57.061Z,2.00
2018-06-14T17:53:24.808Z,1.70
2018-06-14T17:55:52.500Z,1.90
2018-06-14T17:58:20.200Z,1.93
2018-06-14T18:00:47.853Z,2.10
2018-06-14T18:03:15.443Z,2.20
2018-06-14T18:05:43.198Z,1.90
2018-06-14T18:08:11.806Z,2.10
2018-06-14T18:10:40.242Z,1.70
2018-06-14T18:13:08.095Z,2.23
2018-06-14T18:15:36.162Z,1.73
2018-06-14T18:18:03.982Z,1.90
2018-06-14T18:20:31.689Z,1.83
2018-06-14T18:23:00.156Z,2.00
2018-06-14T18:25:27.994Z,1.80
2018-06-14T18:27:55.785Z,2.10
2018-06-14T18:30:23.973Z,2.07
2018-06-14T18:32:52.138Z,2.23
2018-06-14T18:35:19.929Z,2.30
2018-06-14T18:37:47.903Z,2.37
2018-06-14T18:40:17.186Z,2.30
2018-06-14T18:42:46.003Z,2.30
2018-06-14T18:45:14.031Z,2.43
2018-06-14T18:47:42.761Z,2.17
2018-06-14T18:50:11.302Z,2.20
2018-06-14T18:52:41.523Z,2.90
2018-06-14T18:55:09.760Z,2.50
2018-06-14T18:57:37.565Z,3.20
2018-06-14T19:00:07.294Z,14.47
2018-06-14T19:02:35.320Z,4.80
2018-06-14T19:05:03.041Z,14.63
2018-06-14T19:07:30.768Z,12.10
2018-06-14T19:09:59.281Z,8.80
2018-06-14T19:12:28.398Z,12.13
2018-06-14T19:14:57.492Z,7.10
2018-06-14T19:17:25.280Z,6.80
2018-06-14T19:19:53.811Z,5.37
2018-06-14T19:22:22.011Z,5.10
2018-06-14T19:24:49.893Z,4.80
2018-06-14T19:27:17.592Z,16.07
2018-06-14T19:29:45.535Z,13.03
2018-06-14T19:32:14.005Z,13.77
2018-06-14T19:34:41.724Z,12.20
2018-06-14T19:37:09.458Z,8.77
2018-06-14T19:39:37.612Z,6.83
2018-06-14T19:42:05.240Z,5.50
2018-06-14T19:44:33.424Z,4.67
2018-06-14T19:47:01.317Z,4.20
2018-06-14T19:49:29.123Z,3.93
2018-06-14T19:51:56.915Z,3.20
2018-06-14T19:54:26.669Z,2.90
2018-06-14T19:56:54.303Z,4.53
2018-06-14T19:59:22.178Z,4.90
2018-06-14T20:01:50.539Z,4.27
2018-06-14T20:04:18.162Z,5.20
2018-06-14T20:06:46.536Z,5.37
2018-06-14T20:09:14.385Z,5.50
2018-06-14T20:11:42.088Z,6.50
2018-06-14T20:14:10.007Z,6.70
2018-06-14T20:16:37.857Z,9.30
2018-06-14T20:19:05.618Z,17.00
2018-06-14T20:21:33.882Z,13.20
2018-06-14T20:24:01.879Z,12.27
2018-06-14T20:26:29.827Z,23.60
2018-06-14T20:28:57.690Z,18.73
2018-06-14T20:31:25.950Z,12.90
2018-06-14T20:33:54.075Z,8.17
2018-06-14T20:36:21.693Z,8.43
2018-06-14T20:38:49.666Z,8.20
2018-06-14T20:41:17.546Z,10.73
2018-06-14T20:43:45.978Z,10.37
2018-06-14T20:46:13.693Z,9.07
2018-06-14T20:48:41.724Z,8.47
2018-06-14T20:51:09.744Z,7.90
2018-06-14T20:53:37.563Z,9.73
2018-06-14T20:56:05.442Z,9.90
2018-06-14T20:58:33.170Z,8.37
2018-06-14T21:01:01.001Z,6.13
2018-06-14T21:03:28.562Z,6.57
2018-06-14T21:05:56.297Z,6.13
2018-06-14T21:08:24.081Z,6.50
2018-06-14T21:10:52.100Z,6.80
2018-06-14T21:13:19.752Z,5.90
2018-06-14T21:15:47.767Z,6.40
2018-06-14T21:18:15.778Z,6.83
2018-06-14T21:20:43.489Z,6.00
2018-06-14T21:23:11.138Z,5.27
2018-06-14T21:25:38.790Z,5.70
2018-06-14T21:28:06.620Z,5.50
2018-06-14T21:30:34.153Z,5.47
2018-06-14T21:33:01.934Z,5.03
2018-06-14T21:35:29.524Z,5.40
2018-06-14T21:37:57.284Z,5.93
2018-06-14T21:40:25.067Z,5.33
2018-06-14T21:42:53.986Z,5.07
2018-06-14T21:45:22.228Z,5.20
2018-06-14T21:47:50.562Z,5.50
2018-06-14T21:50:18.130Z,5.60
2018-06-14T21:52:45.973Z,5.17
2018-06-14T21:55:13.976Z,5.60
2018-06-14T21:57:41.707Z,6.10
2018-06-14T22:00:09.468Z,5.80
2018-06-14T22:02:45.829Z,6.27
2018-06-14T22:05:14.409Z,6.10
2018-06-14T22:07:42.071Z,6.63
2018-06-14T22:10:09.767Z,6.73
2018-06-14T22:12:37.545Z,5.97
2018-06-14T22:15:05.632Z,6.80
2018-06-14T22:17:33.353Z,6.00
2018-06-14T22:20:00.880Z,6.47
2018-06-14T22:22:28.436Z,6.30
2018-06-14T22:24:56.248Z,6.17
2018-06-14T22:27:24.004Z,6.60
2018-06-14T22:29:51.549Z,6.03
2018-06-14T22:32:19.364Z,6.70
2018-06-14T22:34:58.409Z,6.70
2018-06-14T22:37:26.289Z,6.37
2018-06-14T22:39:53.976Z,6.30
2018-06-14T22:42:21.804Z,6.53
2018-06-14T22:44:49.733Z,5.93
2018-06-14T22:47:17.423Z,6.23
2018-06-14T22:49:45.347Z,6.70
2018-06-14T22:52:53.240Z,6.53
2018-06-14T22:55:22.033Z,6.37
2018-06-14T22:57:49.803Z,6.13
2018-06-14T23:01:00.464Z,6.30
2018-06-14T23:03:28.256Z,6.17
2018-06-14T23:05:56.051Z,7.10
2018-06-14T23:08:24.084Z,7.20
2018-06-14T23:11:03.042Z,6.30
2018-06-14T23:13:30.726Z,7.20
2018-06-14T23:15:58.470Z,7.30
2018-06-14T23:18:26.086Z,6.67
2018-06-14T23:20:54.023Z,6.47
2018-06-14T23:23:21.870Z,6.50
2018-06-14T23:25:49.519Z,6.60
2018-06-14T23:28:17.227Z,6.10
2018-06-14T23:30:44.990Z,6.40
2018-06-14T23:33:13.592Z,6.60
2018-06-14T23:35:41.206Z,6.70
2018-06-14T23:38:08.962Z,6.80
2018-06-14T23:40:36.677Z,6.90
2018-06-14T23:43:04.415Z,7.20
2018-06-14T23:45:32.084Z,6.30
2018-06-14T23:47:59.704Z,7.10
2018-06-14T23:50:27.411Z,7.33
2018-06-14T23:52:55.063Z,6.03
2018-06-14T23:55:22.615Z,7.03
2018-06-14T23:57:50.148Z,7.40
